Terminal Aerodrome Forecast
Issued by NWS

Home | Current Version | Previous Version | Text Only | Print | Product List | Glossary On
Versions: 1 2 3 4 5 6 7 8 9 10 11 12 13 14 15 16 17 18 19 20 21 22 23 24 25 26
000
FTUS45 KBOU 021720
TAFBJC
TAF
KBJC 021720Z 0218/0318 VRB05KT P6SM FEW220
     FM022100 02007KT P6SM FEW100 SCT220
     FM030100 27006KT P6SM FEW080 SCT220
     FM030600 28010KT P6SM SCT080 BKN130
     FM031600 33013KT P6SM FEW070 SCT120=

USA.gov is the U.S. government's official web portal to all federal, state and local government web resources and services.